createdAt,value
2017-07-19T00:00:19.389Z,21.91
2017-07-19T00:00:45.545Z,21.83
2017-07-19T00:01:11.682Z,21.8
2017-07-19T00:01:37.767Z,21.77
2017-07-19T00:02:03.869Z,21.73
2017-07-19T00:02:30.057Z,21.73
2017-07-19T00:02:56.202Z,21.7
2017-07-19T00:03:22.349Z,21.75
2017-07-19T00:03:48.482Z,21.7
2017-07-19T00:04:14.605Z,21.75
2017-07-19T00:04:40.729Z,21.79
2017-07-19T00:05:06.913Z,21.73
2017-07-19T00:05:33.036Z,21.6
2017-07-19T00:05:59.168Z,21.58
2017-07-19T00:06:25.337Z,21.6
2017-07-19T00:06:51.532Z,21.66
2017-07-19T00:07:17.692Z,21.62
2017-07-19T00:07:43.814Z,21.62
2017-07-19T00:08:09.927Z,21.57
2017-07-19T00:08:36.117Z,21.55
2017-07-19T00:09:02.241Z,21.54
2017-07-19T00:09:28.380Z,21.58
2017-07-19T00:09:54.539Z,21.5
2017-07-19T00:10:20.641Z,21.48
2017-07-19T00:10:46.805Z,21.5
2017-07-19T00:11:12.930Z,21.5
2017-07-19T00:11:39.047Z,21.48
2017-07-19T00:12:05.211Z,21.46
2017-07-19T00:12:31.337Z,21.43
2017-07-19T00:12:57.479Z,21.4
2017-07-19T00:13:23.639Z,21.39
2017-07-19T00:13:49.770Z,21.42
2017-07-19T00:14:15.863Z,21.3
2017-07-19T00:14:42.018Z,21.32
2017-07-19T00:15:08.178Z,21.33
2017-07-19T00:15:34.316Z,21.29
2017-07-19T00:16:00.418Z,21.24
2017-07-19T00:16:26.579Z,21.27
2017-07-19T00:16:52.669Z,21.37
2017-07-19T00:17:18.858Z,21.4
2017-07-19T00:17:44.949Z,21.35
2017-07-19T00:18:11.081Z,21.37
2017-07-19T00:18:37.243Z,21.33
2017-07-19T00:19:03.330Z,21.29
2017-07-19T00:19:29.453Z,21.27
2017-07-19T00:19:55.588Z,21.25
2017-07-19T00:20:21.727Z,21.27
2017-07-19T00:20:47.849Z,21.29
2017-07-19T00:21:14.011Z,21.15
2017-07-19T00:21:40.157Z,21.22
2017-07-19T00:22:06.248Z,21.32
2017-07-19T00:22:32.378Z,21.18
2017-07-19T00:22:58.530Z,21.18
2017-07-19T00:23:24.691Z,21.22
2017-07-19T00:23:50.781Z,21.17
2017-07-19T00:24:16.926Z,21.25
2017-07-19T00:24:43.060Z,21.24
2017-07-19T00:25:09.229Z,21.27
2017-07-19T00:25:35.370Z,21.18
2017-07-19T00:26:01.501Z,21.24
2017-07-19T00:26:27.655Z,21.17
2017-07-19T00:26:53.794Z,21.24
2017-07-19T00:27:19.901Z,21.27
2017-07-19T00:27:46.029Z,21.29
2017-07-19T00:28:12.182Z,21.22
2017-07-19T00:28:38.322Z,21.24
2017-07-19T00:29:04.463Z,21.22
2017-07-19T00:29:30.602Z,21.27
2017-07-19T00:29:56.750Z,21.22
2017-07-19T00:30:22.890Z,21.18
2017-07-19T00:30:49.019Z,21.18
2017-07-19T00:31:15.149Z,21.2
2017-07-19T00:31:41.240Z,21.21
2017-07-19T00:32:07.396Z,21.21
2017-07-19T00:32:33.555Z,21.2
2017-07-19T00:32:59.671Z,21.18
2017-07-19T00:33:25.820Z,21.2
2017-07-19T00:33:51.983Z,21.18
2017-07-19T00:34:18.129Z,21.24
2017-07-19T00:34:44.276Z,21.24
2017-07-19T00:35:10.381Z,21.25
2017-07-19T00:35:36.501Z,21.2
2017-07-19T00:36:02.614Z,21.21
2017-07-19T00:36:28.777Z,21.22
2017-07-19T00:36:54.930Z,21.21
2017-07-19T00:37:21.094Z,21.17
2017-07-19T00:37:47.229Z,21.09
2017-07-19T00:38:13.357Z,21.09
2017-07-19T00:38:39.494Z,21.06
2017-07-19T00:39:05.629Z,21.24
2017-07-19T00:39:31.742Z,21.12
2017-07-19T00:39:57.903Z,21.09
2017-07-19T00:40:24.028Z,21.12
2017-07-19T00:40:50.193Z,21.09
2017-07-19T00:41:16.350Z,21.09
2017-07-19T00:41:42.476Z,21.07
2017-07-19T00:42:08.618Z,21.14
2017-07-19T00:42:34.771Z,21.17
2017-07-19T00:43:00.906Z,21.14
2017-07-19T00:43:27.042Z,21.07
2017-07-19T00:43:53.194Z,21.14
2017-07-19T00:44:19.355Z,21.05
2017-07-19T00:44:45.496Z,21.12
2017-07-19T00:45:11.682Z,21.05
2017-07-19T00:45:37.801Z,21.11
2017-07-19T00:46:03.928Z,21.14
2017-07-19T00:46:30.034Z,21.15
2017-07-19T00:46:56.146Z,21.09
2017-07-19T00:47:22.318Z,21.09
2017-07-19T00:47:48.425Z,21.07
2017-07-19T00:48:14.517Z,21.14
2017-07-19T00:48:40.666Z,21.07
2017-07-19T00:49:06.800Z,21.05
2017-07-19T00:49:32.945Z,21.09
2017-07-19T00:49:59.035Z,21.06
2017-07-19T00:50:25.163Z,21.06
2017-07-19T00:50:51.310Z,21
2017-07-19T00:51:17.445Z,21.09
2017-07-19T00:51:43.589Z,20.92
2017-07-19T00:52:09.686Z,20.96
2017-07-19T00:52:35.822Z,20.95
2017-07-19T00:53:01.916Z,20.85
2017-07-19T00:53:28.055Z,20.92
2017-07-19T00:53:54.166Z,20.85
2017-07-19T00:54:20.319Z,20.9
2017-07-19T00:54:46.457Z,20.88
2017-07-19T00:55:12.588Z,20.88
2017-07-19T00:55:38.690Z,20.9
2017-07-19T00:56:04.840Z,20.9
2017-07-19T00:56:30.961Z,20.92
2017-07-19T00:56:57.074Z,20.92
2017-07-19T00:57:23.212Z,20.95
2017-07-19T00:57:49.310Z,20.87
2017-07-19T00:58:15.475Z,20.93
2017-07-19T00:58:41.582Z,20.93
2017-07-19T00:59:07.736Z,20.88
2017-07-19T00:59:33.926Z,20.93
2017-07-19T01:00:00.078Z,20.95
2017-07-19T01:00:26.212Z,20.92
2017-07-19T01:00:52.299Z,20.85
2017-07-19T01:01:18.399Z,20.99
2017-07-19T01:01:44.495Z,20.87
2017-07-19T01:02:10.659Z,20.95
2017-07-19T01:02:36.789Z,20.92
2017-07-19T01:03:02.904Z,20.96
2017-07-19T01:03:29.036Z,20.96
2017-07-19T01:03:55.199Z,20.96
2017-07-19T01:04:21.359Z,21
2017-07-19T01:04:47.460Z,20.96
2017-07-19T01:05:13.568Z,20.93
2017-07-19T01:05:39.658Z,20.87
2017-07-19T01:06:05.804Z,20.92
2017-07-19T01:06:31.941Z,20.9
2017-07-19T01:06:58.034Z,20.95
2017-07-19T01:07:24.142Z,20.87
2017-07-19T01:07:50.256Z,20.87
2017-07-19T01:08:16.410Z,20.93
2017-07-19T01:08:42.543Z,20.88
2017-07-19T01:09:08.632Z,20.92
2017-07-19T01:09:34.801Z,20.87
2017-07-19T01:10:00.907Z,20.77
2017-07-19T01:10:27.027Z,20.75
2017-07-19T01:10:53.166Z,20.81
2017-07-19T01:11:19.273Z,20.85
2017-07-19T01:11:45.398Z,20.9
2017-07-19T01:12:11.541Z,20.82
2017-07-19T01:12:37.671Z,20.87
2017-07-19T01:13:03.790Z,20.92
2017-07-19T01:13:29.922Z,20.9
2017-07-19T01:13:56.064Z,20.84
2017-07-19T01:14:22.180Z,20.9
2017-07-19T01:14:48.311Z,20.92
2017-07-19T01:15:14.437Z,20.88
2017-07-19T01:15:40.527Z,20.84
2017-07-19T01:16:06.686Z,20.88
2017-07-19T01:16:32.845Z,20.88
2017-07-19T01:16:58.957Z,20.82
2017-07-19T01:17:25.086Z,20.8
2017-07-19T01:17:51.244Z,20.77
2017-07-19T01:18:17.408Z,20.81
2017-07-19T01:18:43.533Z,20.74
2017-07-19T01:19:09.662Z,20.75
2017-07-19T01:19:35.754Z,20.85
2017-07-19T01:20:01.853Z,20.81
2017-07-19T01:20:28.017Z,20.93
2017-07-19T01:20:54.137Z,20.88
2017-07-19T01:21:20.275Z,20.9
2017-07-19T01:21:46.412Z,20.95
2017-07-19T01:22:12.535Z,20.88
2017-07-19T01:22:38.624Z,20.85
2017-07-19T01:23:04.786Z,20.85
2017-07-19T01:23:30.942Z,20.87
2017-07-19T01:23:57.074Z,20.88
2017-07-19T01:24:23.223Z,20.88
2017-07-19T01:24:49.361Z,20.84
2017-07-19T01:25:15.469Z,20.78
2017-07-19T01:25:41.566Z,20.74
2017-07-19T01:26:07.681Z,20.82
2017-07-19T01:26:33.819Z,20.82
2017-07-19T01:26:59.926Z,20.84
2017-07-19T01:27:26.079Z,20.8
2017-07-19T01:27:52.234Z,20.74
2017-07-19T01:28:18.421Z,20.78
2017-07-19T01:28:44.560Z,20.84
2017-07-19T01:29:10.736Z,20.99
2017-07-19T01:29:36.912Z,20.95
2017-07-19T01:30:03.020Z,20.9
2017-07-19T01:30:29.176Z,20.92
2017-07-19T01:30:55.292Z,20.88
2017-07-19T01:31:21.423Z,20.9
2017-07-19T01:31:47.557Z,20.92
2017-07-19T01:32:13.696Z,20.84
2017-07-19T01:32:39.819Z,20.81
2017-07-19T01:33:05.928Z,20.85
2017-07-19T01:33:32.070Z,20.87
2017-07-19T01:33:58.215Z,20.88
2017-07-19T01:34:24.350Z,20.92
2017-07-19T01:34:50.468Z,20.87
2017-07-19T01:35:16.632Z,20.84
2017-07-19T01:35:42.748Z,20.9
2017-07-19T01:36:08.875Z,20.88
2017-07-19T01:36:35.010Z,20.96
2017-07-19T01:37:01.128Z,20.95
2017-07-19T01:37:27.297Z,20.92
2017-07-19T01:37:53.405Z,20.93
2017-07-19T01:38:19.552Z,20.87
2017-07-19T01:38:45.644Z,20.88
2017-07-19T01:39:11.806Z,20.88
2017-07-19T01:39:37.918Z,20.82
2017-07-19T01:40:04.069Z,20.77
2017-07-19T01:40:30.197Z,20.78
2017-07-19T01:40:56.344Z,20.77
2017-07-19T01:41:22.478Z,20.78
2017-07-19T01:41:48.626Z,20.77
2017-07-19T01:42:14.741Z,20.72
2017-07-19T01:42:40.880Z,20.72
2017-07-19T01:43:07.087Z,20.78
2017-07-19T01:43:33.201Z,20.78
2017-07-19T01:43:59.382Z,20.87
2017-07-19T01:44:25.512Z,20.8
2017-07-19T01:44:51.650Z,20.8
2017-07-19T01:45:17.780Z,20.78
2017-07-19T01:45:43.887Z,20.77
2017-07-19T01:46:10.057Z,20.81
2017-07-19T01:46:36.178Z,20.93
2017-07-19T01:47:02.317Z,20.84
2017-07-19T01:47:28.502Z,20.88
2017-07-19T01:47:54.714Z,20.92
2017-07-19T01:48:20.805Z,20.85
2017-07-19T01:48:46.932Z,20.82
2017-07-19T01:49:13.122Z,20.84
2017-07-19T01:49:39.264Z,20.8
2017-07-19T01:50:05.364Z,20.84
2017-07-19T01:50:31.498Z,20.82
2017-07-19T01:50:57.641Z,20.84
2017-07-19T01:51:23.765Z,20.84
2017-07-19T01:51:49.914Z,20.93
2017-07-19T01:52:16.045Z,20.9
2017-07-19T01:52:42.153Z,20.9
2017-07-19T01:53:08.244Z,20.87
2017-07-19T01:53:34.417Z,20.88
2017-07-19T01:54:00.526Z,20.82
2017-07-19T01:54:26.697Z,20.82
2017-07-19T01:54:52.819Z,20.78
2017-07-19T01:55:18.982Z,20.74
2017-07-19T01:55:45.153Z,20.75
2017-07-19T01:56:11.296Z,20.74
2017-07-19T01:56:37.485Z,20.77
2017-07-19T01:57:03.605Z,20.78
2017-07-19T01:57:29.708Z,20.74
2017-07-19T01:57:55.827Z,20.8
2017-07-19T01:58:21.994Z,20.74
2017-07-19T01:58:48.165Z,20.78
2017-07-19T01:59:14.298Z,20.78
2017-07-19T01:59:40.395Z,20.69
2017-07-19T02:00:06.554Z,20.78
2017-07-19T02:00:32.678Z,20.69
2017-07-19T02:00:58.815Z,20.8
2017-07-19T02:01:24.947Z,20.78
2017-07-19T02:01:51.103Z,20.69
2017-07-19T02:02:17.194Z,20.72
2017-07-19T02:02:43.375Z,20.69
2017-07-19T02:03:09.510Z,20.82
2017-07-19T02:03:35.649Z,20.82
2017-07-19T02:04:01.773Z,20.8
2017-07-19T02:04:27.962Z,20.78
2017-07-19T02:04:54.082Z,20.87
2017-07-19T02:05:20.180Z,20.82
2017-07-19T02:05:46.312Z,20.8
2017-07-19T02:06:12.432Z,20.74
2017-07-19T02:06:38.596Z,20.81
2017-07-19T02:07:04.789Z,20.82
2017-07-19T02:07:30.885Z,20.75
2017-07-19T02:07:56.999Z,20.78
2017-07-19T02:08:23.135Z,20.7
2017-07-19T02:08:49.257Z,20.72
2017-07-19T02:09:15.362Z,20.66
2017-07-19T02:09:41.477Z,20.67
2017-07-19T02:10:07.617Z,20.62
2017-07-19T02:10:33.778Z,20.62
2017-07-19T02:10:59.874Z,20.62
2017-07-19T02:11:26.013Z,20.56
2017-07-19T02:11:52.120Z,20.56
2017-07-19T02:12:18.248Z,20.6
2017-07-19T02:12:44.361Z,20.63
2017-07-19T02:13:10.523Z,20.58
2017-07-19T02:13:36.631Z,20.58
2017-07-19T02:14:02.750Z,20.63
2017-07-19T02:14:28.873Z,20.63
2017-07-19T02:14:55.015Z,20.59
2017-07-19T02:15:21.177Z,20.65
2017-07-19T02:15:47.305Z,20.59
2017-07-19T02:16:13.452Z,20.65
2017-07-19T02:16:39.626Z,20.63
2017-07-19T02:17:05.759Z,20.52
2017-07-19T02:17:31.870Z,20.62
2017-07-19T02:17:57.970Z,20.58
2017-07-19T02:18:24.077Z,20.56
2017-07-19T02:18:50.193Z,20.62
2017-07-19T02:19:16.315Z,20.66
2017-07-19T02:19:42.440Z,20.58
2017-07-19T02:20:08.565Z,20.62
2017-07-19T02:20:34.729Z,20.6
2017-07-19T02:21:00.842Z,20.58
2017-07-19T02:21:26.966Z,20.56
2017-07-19T02:21:53.126Z,20.63
2017-07-19T02:22:19.246Z,20.59
2017-07-19T02:22:45.417Z,20.59
2017-07-19T02:23:11.580Z,20.63
2017-07-19T02:23:37.726Z,20.6
2017-07-19T02:24:03.817Z,20.55
2017-07-19T02:24:29.925Z,20.62
2017-07-19T02:24:56.049Z,20.63
2017-07-19T02:25:22.204Z,20.6
2017-07-19T02:25:48.295Z,20.5
2017-07-19T02:26:14.417Z,20.59
2017-07-19T02:26:40.521Z,20.44
2017-07-19T02:27:06.637Z,20.39
2017-07-19T02:27:32.754Z,20.47
2017-07-19T02:27:58.892Z,20.41
2017-07-19T02:28:25.022Z,20.4
2017-07-19T02:28:51.109Z,20.48
2017-07-19T02:29:17.267Z,20.47
2017-07-19T02:29:43.424Z,20.51
2017-07-19T02:30:09.589Z,20.47
2017-07-19T02:30:35.743Z,20.52
2017-07-19T02:31:01.886Z,20.52
2017-07-19T02:31:28.072Z,20.41
2017-07-19T02:31:54.222Z,20.47
2017-07-19T02:32:20.360Z,20.55
2017-07-19T02:32:46.466Z,20.58
2017-07-19T02:33:12.593Z,20.62
2017-07-19T02:33:38.734Z,20.55
2017-07-19T02:34:04.888Z,20.48
2017-07-19T02:34:31.103Z,20.56
2017-07-19T02:34:57.213Z,20.44
2017-07-19T02:35:23.340Z,20.41
2017-07-19T02:35:49.529Z,20.55
2017-07-19T02:36:15.647Z,20.44
2017-07-19T02:36:41.779Z,20.44
2017-07-19T02:37:07.892Z,20.39
2017-07-19T02:37:34.052Z,20.4
2017-07-19T02:38:00.161Z,20.48
2017-07-19T02:38:26.321Z,20.48
2017-07-19T02:38:52.501Z,20.4
2017-07-19T02:39:18.722Z,20.41
2017-07-19T02:39:44.811Z,20.47
2017-07-19T02:40:10.984Z,20.44
2017-07-19T02:40:37.145Z,20.48
2017-07-19T02:41:03.292Z,20.4
2017-07-19T02:41:29.456Z,20.44
2017-07-19T02:41:55.638Z,20.48
2017-07-19T02:42:21.815Z,20.43
2017-07-19T02:42:47.975Z,20.41
2017-07-19T02:43:14.090Z,20.41
2017-07-19T02:43:40.236Z,20.47
2017-07-19T02:44:06.372Z,20.47
2017-07-19T02:44:32.490Z,20.41
2017-07-19T02:44:58.606Z,20.44
2017-07-19T02:45:24.771Z,20.5
2017-07-19T02:45:50.898Z,20.51
2017-07-19T02:46:17.036Z,20.52
2017-07-19T02:46:43.199Z,20.51
2017-07-19T02:47:09.323Z,20.5
2017-07-19T02:47:35.461Z,20.48
2017-07-19T02:48:01.622Z,20.44
2017-07-19T02:48:27.805Z,20.48
2017-07-19T02:48:53.890Z,20.43
2017-07-19T02:49:20.064Z,20.4
2017-07-19T02:49:46.227Z,20.36
2017-07-19T02:50:12.388Z,20.39
2017-07-19T02:50:38.531Z,20.43
2017-07-19T02:51:04.638Z,20.4
2017-07-19T02:51:30.785Z,20.41
2017-07-19T02:51:56.950Z,20.43
2017-07-19T02:52:23.117Z,20.4
2017-07-19T02:52:49.241Z,20.31
2017-07-19T02:53:15.422Z,20.36
2017-07-19T02:53:41.564Z,20.31
2017-07-19T02:54:07.685Z,20.32
2017-07-19T02:54:33.819Z,20.31
2017-07-19T02:54:59.938Z,20.34
2017-07-19T02:55:26.029Z,20.29
2017-07-19T02:55:52.164Z,20.28
2017-07-19T02:56:18.314Z,20.31
2017-07-19T02:56:44.427Z,20.29
2017-07-19T02:57:10.563Z,20.26
2017-07-19T02:57:36.662Z,20.32
2017-07-19T02:58:02.777Z,20.28
2017-07-19T02:58:28.954Z,20.34
2017-07-19T02:58:55.044Z,20.39
2017-07-19T02:59:21.155Z,20.36
2017-07-19T02:59:47.331Z,20.37
2017-07-19T03:00:13.448Z,20.4
2017-07-19T03:00:39.632Z,20.36
2017-07-19T03:01:05.788Z,20.37
2017-07-19T03:01:31.929Z,20.32
2017-07-19T03:01:58.112Z,20.4
2017-07-19T03:02:24.301Z,20.37
2017-07-19T03:02:50.417Z,20.32
2017-07-19T03:03:16.593Z,20.32
2017-07-19T03:03:42.757Z,20.36
2017-07-19T03:04:08.952Z,20.37
2017-07-19T03:04:35.106Z,20.41
2017-07-19T03:05:01.271Z,20.32
2017-07-19T03:05:27.402Z,20.4
2017-07-19T03:05:53.590Z,20.43
2017-07-19T03:06:19.729Z,20.41
2017-07-19T03:06:45.904Z,20.36
2017-07-19T03:07:12.067Z,20.32
2017-07-19T03:07:38.183Z,20.29
2017-07-19T03:08:04.304Z,20.28
2017-07-19T03:08:30.439Z,20.31
2017-07-19T03:08:56.585Z,20.26
2017-07-19T03:09:22.724Z,20.34
2017-07-19T03:09:48.824Z,20.31
2017-07-19T03:10:14.925Z,20.26
2017-07-19T03:10:41.032Z,20.32
2017-07-19T03:11:07.174Z,20.28
2017-07-19T03:11:33.318Z,20.22
2017-07-19T03:11:59.452Z,20.26
2017-07-19T03:12:25.570Z,20.28
2017-07-19T03:12:51.663Z,20.25
2017-07-19T03:13:17.772Z,20.25
2017-07-19T03:13:43.898Z,20.22
2017-07-19T03:14:10.033Z,20.22
2017-07-19T03:14:36.192Z,20.26
2017-07-19T03:15:02.347Z,20.24
2017-07-19T03:15:28.498Z,20.29
2017-07-19T03:15:54.592Z,20.28
2017-07-19T03:16:20.682Z,20.19
2017-07-19T03:16:46.854Z,20.22
2017-07-19T03:17:12.997Z,20.25
2017-07-19T03:17:39.159Z,20.24
2017-07-19T03:18:05.316Z,20.19
2017-07-19T03:18:31.467Z,20.21
2017-07-19T03:18:57.631Z,20.25
2017-07-19T03:19:23.785Z,20.22
2017-07-19T03:19:49.970Z,20.25
2017-07-19T03:20:16.080Z,20.22
2017-07-19T03:20:42.205Z,20.22
2017-07-19T03:21:08.325Z,20.24
2017-07-19T03:21:34.458Z,20.18
2017-07-19T03:22:00.616Z,20.22
2017-07-19T03:22:26.730Z,20.16
2017-07-19T03:22:52.913Z,20.11
2017-07-19T03:23:19.048Z,20.18
2017-07-19T03:23:45.160Z,20.18
2017-07-19T03:24:11.260Z,20.19
2017-07-19T03:24:37.366Z,20.22
2017-07-19T03:25:03.458Z,20.24
2017-07-19T03:25:29.604Z,20.18
2017-07-19T03:25:55.739Z,20.21
2017-07-19T03:26:21.887Z,20.24
2017-07-19T03:26:48.017Z,20.25
2017-07-19T03:27:14.242Z,20.19
2017-07-19T03:27:40.321Z,20.18
2017-07-19T03:28:06.480Z,20.19
2017-07-19T03:28:32.597Z,20.21
2017-07-19T03:28:58.768Z,20.16
2017-07-19T03:29:24.929Z,20.13
2017-07-19T03:29:51.104Z,20.11
2017-07-19T03:30:17.243Z,20.22
2017-07-19T03:30:43.380Z,20.16
2017-07-19T03:31:09.527Z,20.22
2017-07-19T03:31:35.667Z,20.22
2017-07-19T03:32:01.798Z,20.16
2017-07-19T03:32:27.979Z,20.09
2017-07-19T03:32:54.093Z,20.18
2017-07-19T03:33:20.272Z,20.14
2017-07-19T03:33:46.488Z,20.18
2017-07-19T03:34:12.596Z,20.18
2017-07-19T03:34:38.695Z,20.14
2017-07-19T03:35:04.828Z,20.24
2017-07-19T03:35:30.970Z,20.21
2017-07-19T03:35:57.091Z,20.25
2017-07-19T03:36:23.278Z,20.19
2017-07-19T03:36:49.471Z,20.24
2017-07-19T03:37:15.587Z,20.31
2017-07-19T03:37:41.718Z,20.24
2017-07-19T03:38:07.894Z,20.36
2017-07-19T03:38:34.055Z,20.25
2017-07-19T03:39:00.198Z,20.29
2017-07-19T03:39:26.346Z,20.36
2017-07-19T03:39:52.479Z,20.32
2017-07-19T03:40:18.625Z,20.29
2017-07-19T03:40:44.763Z,20.24
2017-07-19T03:41:10.898Z,20.26
2017-07-19T03:41:37.021Z,20.25
2017-07-19T03:42:03.135Z,20.24
2017-07-19T03:42:29.270Z,20.18
2017-07-19T03:42:55.400Z,20.19
2017-07-19T03:43:21.552Z,20.21
2017-07-19T03:43:47.670Z,20.21
2017-07-19T03:44:13.786Z,20.11
2017-07-19T03:44:39.946Z,20.11
2017-07-19T03:45:06.068Z,20.14
2017-07-19T03:45:32.233Z,20.16
2017-07-19T03:45:58.340Z,20.22
2017-07-19T03:46:24.440Z,20.19
2017-07-19T03:46:50.530Z,20.18
2017-07-19T03:47:16.683Z,20.22
2017-07-19T03:47:42.816Z,20.31
2017-07-19T03:48:08.956Z,20.26
2017-07-19T03:48:35.080Z,20.26
2017-07-19T03:49:01.203Z,20.25
2017-07-19T03:49:27.337Z,20.31
2017-07-19T03:49:53.461Z,20.31
2017-07-19T03:50:19.598Z,20.32
2017-07-19T03:50:45.701Z,20.29
2017-07-19T03:51:11.810Z,20.32
2017-07-19T03:51:37.975Z,20.34
2017-07-19T03:52:04.302Z,20.28
2017-07-19T03:52:30.440Z,20.31
2017-07-19T03:52:56.608Z,20.28
2017-07-19T03:53:22.776Z,20.29
2017-07-19T03:53:48.962Z,20.29
2017-07-19T03:54:15.082Z,20.31
2017-07-19T03:54:41.190Z,20.32
2017-07-19T03:55:07.331Z,20.28
2017-07-19T03:55:33.507Z,20.28
2017-07-19T03:55:59.669Z,20.29
2017-07-19T03:56:25.814Z,20.34
2017-07-19T03:56:51.983Z,20.31
2017-07-19T03:57:18.089Z,20.34
2017-07-19T03:57:44.210Z,20.32
2017-07-19T03:58:10.350Z,20.31
2017-07-19T03:58:36.538Z,20.34
2017-07-19T03:59:02.714Z,20.29
2017-07-19T03:59:28.828Z,20.29
2017-07-19T03:59:54.988Z,20.31
2017-07-19T04:00:21.156Z,20.34
2017-07-19T04:00:47.319Z,20.26
2017-07-19T04:01:13.517Z,20.29
2017-07-19T04:01:39.655Z,20.32
2017-07-19T04:02:05.766Z,20.4
2017-07-19T04:02:31.918Z,20.48
2017-07-19T04:02:58.033Z,20.28
2017-07-19T04:03:24.139Z,20.32
2017-07-19T04:03:50.270Z,20.44
2017-07-19T04:04:16.410Z,20.36
2017-07-19T04:04:42.535Z,20.43
2017-07-19T04:05:08.697Z,20.43
2017-07-19T04:05:34.841Z,20.36
2017-07-19T04:06:00.989Z,20.37
2017-07-19T04:06:27.130Z,20.43
2017-07-19T04:06:53.319Z,20.37
2017-07-19T04:07:19.446Z,20.41
2017-07-19T04:07:45.566Z,20.41
2017-07-19T04:08:11.770Z,20.39
2017-07-19T04:08:37.932Z,20.43
2017-07-19T04:09:04.070Z,20.43
2017-07-19T04:09:30.220Z,20.44
2017-07-19T04:09:56.409Z,20.4
2017-07-19T04:10:22.531Z,20.34
2017-07-19T04:10:48.676Z,20.43
2017-07-19T04:11:14.778Z,20.43
2017-07-19T04:11:40.939Z,20.43
2017-07-19T04:12:07.099Z,20.39
2017-07-19T04:12:33.215Z,20.47
2017-07-19T04:12:59.365Z,20.4
2017-07-19T04:13:25.552Z,20.44
2017-07-19T04:13:51.699Z,20.41
2017-07-19T04:14:17.822Z,20.28
2017-07-19T04:14:43.956Z,20.37
2017-07-19T04:15:10.078Z,20.39
2017-07-19T04:15:36.196Z,20.44
2017-07-19T04:16:02.332Z,20.39
2017-07-19T04:16:28.508Z,20.43
2017-07-19T04:16:54.624Z,20.51
2017-07-19T04:17:20.789Z,20.48
2017-07-19T04:17:46.970Z,20.44
2017-07-19T04:18:13.109Z,20.48
2017-07-19T04:18:39.211Z,20.44
2017-07-19T04:19:05.346Z,20.47
2017-07-19T04:19:31.440Z,20.43
2017-07-19T04:19:57.533Z,20.43
2017-07-19T04:20:23.698Z,20.47
2017-07-19T04:20:49.814Z,20.39
2017-07-19T04:21:15.958Z,20.48
2017-07-19T04:21:42.116Z,20.5
2017-07-19T04:22:08.260Z,20.51
2017-07-19T04:22:34.418Z,20.52
2017-07-19T04:23:00.531Z,20.69
2017-07-19T04:23:26.680Z,20.59
2017-07-19T04:23:52.841Z,20.65
2017-07-19T04:24:19.007Z,20.6
2017-07-19T04:24:45.152Z,20.7
2017-07-19T04:25:11.314Z,20.65
2017-07-19T04:25:37.434Z,20.62
2017-07-19T04:26:03.574Z,20.63
2017-07-19T04:26:29.740Z,20.65
2017-07-19T04:26:55.837Z,20.7
2017-07-19T04:27:21.978Z,20.67
2017-07-19T04:27:48.113Z,20.66
2017-07-19T04:28:14.282Z,20.63
2017-07-19T04:28:40.444Z,20.65
2017-07-19T04:29:06.564Z,20.67
2017-07-19T04:29:32.678Z,20.67
2017-07-19T04:29:58.840Z,20.59
2017-07-19T04:30:24.961Z,20.66
2017-07-19T04:30:51.125Z,20.65
2017-07-19T04:31:17.277Z,20.67
2017-07-19T04:31:43.431Z,20.59
2017-07-19T04:32:09.548Z,20.58
2017-07-19T04:32:35.651Z,20.62
2017-07-19T04:33:01.813Z,20.69
2017-07-19T04:33:27.957Z,20.67
2017-07-19T04:33:54.109Z,20.58
2017-07-19T04:34:20.224Z,20.69
2017-07-19T04:34:46.359Z,20.56
2017-07-19T04:35:12.485Z,20.65
2017-07-19T04:35:38.575Z,20.66
2017-07-19T04:36:04.704Z,20.6
2017-07-19T04:36:30.917Z,20.7
2017-07-19T04:36:57.132Z,20.63
2017-07-19T04:37:23.282Z,20.62
2017-07-19T04:37:49.442Z,20.52
2017-07-19T04:38:15.582Z,20.65
2017-07-19T04:38:41.728Z,20.67
2017-07-19T04:39:07.824Z,20.69
2017-07-19T04:39:33.977Z,20.69
2017-07-19T04:40:00.138Z,20.72
2017-07-19T04:40:26.277Z,20.69
2017-07-19T04:40:52.406Z,20.69
2017-07-19T04:41:18.569Z,20.65
2017-07-19T04:41:44.712Z,20.65
2017-07-19T04:42:10.835Z,20.65
2017-07-19T04:42:36.998Z,20.66
2017-07-19T04:43:03.143Z,20.55
2017-07-19T04:43:29.232Z,20.65
2017-07-19T04:43:55.340Z,20.7
2017-07-19T04:44:21.465Z,20.69
2017-07-19T04:44:47.569Z,20.65
2017-07-19T04:45:13.712Z,20.66
2017-07-19T04:45:39.860Z,20.66
2017-07-19T04:46:06.021Z,20.66
2017-07-19T04:46:32.142Z,20.7
2017-07-19T04:46:58.233Z,20.66
2017-07-19T04:47:24.398Z,20.8
2017-07-19T04:47:50.524Z,20.77
2017-07-19T04:48:16.653Z,20.72
2017-07-19T04:48:42.824Z,20.77
2017-07-19T04:49:08.954Z,20.84
2017-07-19T04:49:35.095Z,20.84
2017-07-19T04:50:01.255Z,20.84
2017-07-19T04:50:27.371Z,20.84
2017-07-19T04:50:53.537Z,20.88
2017-07-19T04:51:19.662Z,20.88
2017-07-19T04:51:45.802Z,20.9
2017-07-19T04:52:11.933Z,20.92
2017-07-19T04:52:38.062Z,20.87
2017-07-19T04:53:04.251Z,20.82
2017-07-19T04:53:30.406Z,20.84
2017-07-19T04:53:56.570Z,20.92
2017-07-19T04:54:22.728Z,20.95
2017-07-19T04:54:48.831Z,20.88
2017-07-19T04:55:14.990Z,21.02
2017-07-19T04:55:41.105Z,21.05
2017-07-19T04:56:07.211Z,21.17
2017-07-19T04:56:33.376Z,21.05
2017-07-19T04:56:59.505Z,21.27
2017-07-19T04:57:25.612Z,21.37
2017-07-19T04:57:51.752Z,21.5
2017-07-19T04:58:17.875Z,21.55
2017-07-19T04:58:44.040Z,21.7
2017-07-19T04:59:10.154Z,21.72
2017-07-19T04:59:36.299Z,21.64
2017-07-19T05:00:02.462Z,21.76
2017-07-19T05:00:28.633Z,21.72
2017-07-19T05:00:54.769Z,21.76
2017-07-19T05:01:20.908Z,21.8
2017-07-19T05:01:47.087Z,21.77
2017-07-19T05:02:13.248Z,21.92
2017-07-19T05:02:39.458Z,21.95
2017-07-19T05:03:05.614Z,21.91
2017-07-19T05:03:31.704Z,21.83
2017-07-19T05:03:57.835Z,21.96
2017-07-19T05:04:23.968Z,22.06
2017-07-19T05:04:50.084Z,22.04
2017-07-19T05:05:16.209Z,21.98
2017-07-19T05:05:42.372Z,22.08
2017-07-19T05:06:08.545Z,21.96
2017-07-19T05:06:34.695Z,22.07
2017-07-19T05:07:00.793Z,22.07
2017-07-19T05:07:26.976Z,22.06
2017-07-19T05:07:53.112Z,21.99
2017-07-19T05:08:19.200Z,21.93
2017-07-19T05:08:45.327Z,21.99
2017-07-19T05:09:11.432Z,21.98
2017-07-19T05:09:37.547Z,22
2017-07-19T05:10:03.692Z,22.06
2017-07-19T05:10:29.828Z,21.98
2017-07-19T05:10:55.950Z,21.95
2017-07-19T05:11:22.091Z,22
2017-07-19T05:11:48.204Z,21.98
2017-07-19T05:12:14.357Z,21.92
2017-07-19T05:12:40.489Z,21.98
2017-07-19T05:13:06.604Z,22
2017-07-19T05:13:32.725Z,21.95
2017-07-19T05:13:58.833Z,21.95
2017-07-19T05:14:24.957Z,22
2017-07-19T05:14:51.073Z,22.06
2017-07-19T05:15:17.209Z,22.02
2017-07-19T05:15:43.335Z,21.98
2017-07-19T05:16:09.468Z,21.99
2017-07-19T05:16:35.672Z,21.98
2017-07-19T05:17:01.844Z,21.98
2017-07-19T05:17:28.072Z,22
2017-07-19T05:17:54.202Z,22.02
2017-07-19T05:18:20.294Z,22
2017-07-19T05:18:46.458Z,22.13
2017-07-19T05:19:12.605Z,21.99
2017-07-19T05:19:38.721Z,21.99
2017-07-19T05:20:04.829Z,21.99
2017-07-19T05:20:30.934Z,22.02
2017-07-19T05:20:57.071Z,22.07
2017-07-19T05:21:23.176Z,22.02
2017-07-19T05:21:49.283Z,22.07
2017-07-19T05:22:15.371Z,22.02
2017-07-19T05:22:41.495Z,22.04
2017-07-19T05:23:07.631Z,22.06
2017-07-19T05:23:33.802Z,21.99
2017-07-19T05:23:59.923Z,22.04
2017-07-19T05:24:26.058Z,22.06
2017-07-19T05:24:52.152Z,22.04
2017-07-19T05:25:18.314Z,22.08
2017-07-19T05:25:44.452Z,22.1
2017-07-19T05:26:10.577Z,22.18
2017-07-19T05:26:36.693Z,22.02
2017-07-19T05:27:02.852Z,22.04
2017-07-19T05:27:29.004Z,22.2
2017-07-19T05:27:55.172Z,22.1
2017-07-19T05:28:21.323Z,22.11
2017-07-19T05:28:47.459Z,22.13
2017-07-19T05:29:13.625Z,22.11
2017-07-19T05:29:39.746Z,22.11
2017-07-19T05:30:05.863Z,22.11
2017-07-19T05:30:32.026Z,22.02
2017-07-19T05:30:58.128Z,22.17
2017-07-19T05:31:24.241Z,22.2
2017-07-19T05:31:50.367Z,22.2
2017-07-19T05:32:16.527Z,22.13
2017-07-19T05:32:42.641Z,22.14
2017-07-19T05:33:08.790Z,22.15
2017-07-19T05:33:34.905Z,22.02
2017-07-19T05:34:01.011Z,22.15
2017-07-19T05:34:27.158Z,22.13
2017-07-19T05:34:53.281Z,22.22
2017-07-19T05:35:19.411Z,22.15
2017-07-19T05:35:45.576Z,22.13
2017-07-19T05:36:11.663Z,22.14
2017-07-19T05:36:37.765Z,22.1
2017-07-19T05:37:03.872Z,22.1
2017-07-19T05:37:29.985Z,22.11
2017-07-19T05:37:56.110Z,22.1
2017-07-19T05:38:22.298Z,22.08